Surface observations / Quebec / CYHU (71371)

Quebec | Canada | USA | France | UK | Europe | Elsewhere

Display: Info & Location for CYHU (71371) | Help decoding METAR

CYHU MONTREAL/ST HUBERT A QB CN
Raw surface observations for station CYHU
CYHU 221106Z AUTO 02013KT 9SM BKN014 BKN036 BKN070 OVC080 08/05 A2982 RMK SLP098=
CYHU 221100Z AUTO 01012KT 9SM SCT016 SCT038 OVC075 09/06 A2981 RMK SLP096=
CYHU 221029Z AUTO 01008KT 9SM SCT070 OVC090 08/06 A2981 RMK SLP094=
CYHU 221000Z AUTO 36010KT 9SM -RA FEW050 BKN075 OVC089 08/05 A2980 RMK SLP092=
CYHU 220947Z AUTO 36008KT 9SM -RA SCT055 OVC076 09/05 A2980 RMK PRESRR SLP091=
CYHU 220900Z AUTO 03007KT 9SM BKN090 BKN110 08/04 A2976 RMK SLP079=
CYHU 220800Z AUTO 36006KT 9SM FEW100 OVC140 08/04 A2976 RMK SLP078=
CYHU 220700Z AUTO 05006KT 9SM SCT100 BKN140 BKN170 09/05 A2975 RMK SLP074=
CYHU 220600Z AUTO 27006KT 9SM BKN095 OVC110 13/01 A2976 RMK SLP077=
CYHU 220500Z AUTO 26009KT 9SM BKN120 BKN150 OVC200 13/00 A2976 RMK SLP079=
CYHU 220400Z AUTO 25013G18KT 9SM BKN095 OVC150 14/M02 A2977 RMK SLP082 DENSITY ALT 100FT=
CYHU 220300Z AUTO 25013G21KT 9SM BKN110 OVC210 14/M02 A2977 RMK SLP083 DENSITY ALT 100FT=
CYHU 220200Z AUTO 24012G18KT 9SM BKN110 BKN240 15/M01 A2978 RMK SLP084 DENSITY ALT 200FT=
CYHU 220100Z AUTO 23009KT 9SM CLR 15/00 A2976 RMK SLP079 DENSITY ALT 200FT=
CYHU 220000Z AUTO 24011KT 9SM CLR 16/M02 A2975 RMK SLP075 DENSITY ALT 400FT=
CYHU 212300Z AUTO 24017G23KT 9SM CLR 18/M03 A2974 RMK SLP071 DENSITY ALT 600FT=
CYHU 212200Z AUTO 24015G22KT 9SM CLR 19/00 A2974 RMK SLP072 DENSITY ALT 700FT=
CYHU 212100Z AUTO 24015KT 9SM CLR 19/00 A2975 RMK SLP074 DENSITY ALT 800FT=
CYHU 212000Z AUTO 25017KT 9SM CLR 20/00 A2976 RMK SLP078 DENSITY ALT 800FT=
CYHU 211900Z AUTO 26015G20KT 9SM CLR 19/00 A2977 RMK SLP082 DENSITY ALT 700FT=
CYHU 211800Z AUTO 24018G23KT 9SM CLR 19/01 A2979 RMK SLP089 DENSITY ALT 600FT=
CYHU 211200Z AUTO 24015G20KT 9SM SCT110 SCT150 10/03 A2988 RMK SLP118=
CYHU 211100Z AUTO 23012G20KT 9SM SCT110 BKN150 BKN170 09/03 A2988 RMK SLP118=